Time;durP1;ratioP1;P1;durP2;ratioP2;P2;SDS_P1;SDS_P2;PMS_P1;PMS_P2;Temp;Humidity;BMP_temperature;BMP_pressure;BME280_temperature;BME280_humidity;BME280_pressure;Samples;Min_cycle;Max_cycle;Signal;HPM_P1;HPM_P2
2023/06/30 00:01:48;;;;;;;11.20;2.70;;;15.40;99.90;;;;;;5023183;28;20124;-72
2023/06/30 00:04:16;;;;;;;8.82;2.47;;;15.40;99.90;;;;;;5023580;28;20046;-72
2023/06/30 00:06:43;;;;;;;11.05;2.75;;;15.40;99.90;;;;;;5024117;28;20107;-72
2023/06/30 00:09:09;;;;;;;7.20;2.40;;;15.30;99.90;;;;;;5026810;28;20041;-72
2023/06/30 00:11:38;;;;;;;10.02;2.50;;;15.30;99.90;;;;;;5018394;28;20069;-72
2023/06/30 00:14:04;;;;;;;14.20;2.85;;;15.20;99.90;;;;;;4999638;28;20587;-71
2023/06/30 00:16:31;;;;;;;11.32;2.33;;;15.20;99.90;;;;;;5027545;28;20042;-72
2023/06/30 00:18:58;;;;;;;8.57;2.50;;;15.10;99.90;;;;;;5022073;28;20521;-72
2023/06/30 00:21:23;;;;;;;12.02;2.83;;;15.10;99.90;;;;;;4997236;28;20037;-72
2023/06/30 00:23:49;;;;;;;10.98;2.67;;;15.00;99.90;;;;;;5017118;28;20052;-72
2023/06/30 00:26:15;;;;;;;10.90;3.33;;;15.10;99.90;;;;;;5016924;28;20146;-71
2023/06/30 00:28:41;;;;;;;13.13;3.25;;;15.00;99.90;;;;;;5016757;28;20056;-72
2023/06/30 00:31:06;;;;;;;7.57;2.97;;;15.00;99.90;;;;;;5022918;28;20041;-72
2023/06/30 00:33:32;;;;;;;13.85;4.05;;;14.90;99.90;;;;;;5010585;28;20532;-71
2023/06/30 00:35:58;;;;;;;11.40;3.50;;;14.90;99.90;;;;;;5020952;28;20041;-72
2023/06/30 00:38:23;;;;;;;10.35;3.25;;;14.90;99.90;;;;;;5022092;28;20136;-72
2023/06/30 00:40:49;;;;;;;11.65;3.20;;;14.90;99.90;;;;;;5024117;28;20038;-72
2023/06/30 00:43:15;;;;;;;8.98;3.78;;;14.80;99.90;;;;;;5017518;28;20057;-72
2023/06/30 00:45:41;;;;;;;7.97;3.08;;;14.80;99.90;;;;;;5022393;28;20442;-72
2023/06/30 00:48:06;;;;;;;9.15;3.38;;;14.80;99.90;;;;;;5023825;28;20088;-72
2023/06/30 00:50:32;;;;;;;10.27;2.90;;;14.80;99.90;;;;;;5017893;28;20056;-71
2023/06/30 00:52:59;;;;;;;13.18;3.53;;;14.70;99.90;;;;;;5006642;28;20060;-72
2023/06/30 00:55:26;;;;;;;9.23;3.40;;;14.70;99.90;;;;;;5015642;28;20093;-72
2023/06/30 00:57:52;;;;;;;7.78;3.65;;;14.70;99.90;;;;;;5024373;28;20048;-72
2023/06/30 01:00:18;;;;;;;11.23;3.38;;;14.70;99.90;;;;;;4998333;28;20041;-72
2023/06/30 01:02:52;;;;;;;12.50;3.40;;;14.60;99.90;;;;;;5013862;28;20049;-72
2023/06/30 01:05:34;;;;;;;8.27;3.10;;;14.70;99.90;;;;;;5015207;28;20566;-72
2023/06/30 01:08:08;;;;;;;11.95;3.50;;;14.60;99.90;;;;;;5024272;28;20045;-72
2023/06/30 01:10:34;;;;;;;11.88;3.70;;;14.60;99.90;;;;;;4997166;28;20053;-72
2023/06/30 01:13:02;;;;;;;9.95;3.35;;;14.60;99.90;;;;;;5021849;28;20038;-72
2023/06/30 01:15:28;;;;;;;12.60;3.20;;;14.50;99.90;;;;;;5021376;28;20045;-72
2023/06/30 01:17:59;;;;;;;9.77;3.55;;;14.50;99.90;;;;;;5017854;28;20045;-72
2023/06/30 01:20:30;;;;;;;9.07;3.17;;;14.50;99.90;;;;;;5021386;28;20121;-71
2023/06/30 01:23:27;;;;;;;9.90;3.10;;;14.50;99.90;;;;;;5018642;28;20823;-71
2023/06/30 01:25:53;;;;;;;8.45;2.90;;;14.40;99.90;;;;;;5015401;28;20049;-71
2023/06/30 01:28:19;;;;;;;14.90;3.25;;;14.40;99.90;;;;;;4995270;28;20403;-71
2023/06/30 01:30:45;;;;;;;11.40;2.90;;;14.40;99.90;;;;;;5021463;28;20029;-72
2023/06/30 01:33:11;;;;;;;8.98;3.08;;;14.30;99.90;;;;;;5021271;28;20038;-72
2023/06/30 01:35:37;;;;;;;11.10;2.80;;;14.30;99.90;;;;;;5022773;28;20387;-72
2023/06/30 01:38:03;;;;;;;8.15;2.40;;;14.30;99.90;;;;;;5019732;28;20132;-73
2023/06/30 01:40:29;;;;;;;8.23;2.58;;;14.30;99.90;;;;;;5021466;28;20444;-72
2023/06/30 01:42:57;;;;;;;8.82;2.70;;;14.30;99.90;;;;;;5007646;28;20175;-72
2023/06/30 01:45:25;;;;;;;10.15;2.90;;;14.20;99.90;;;;;;5015568;28;20049;-72
2023/06/30 01:47:51;;;;;;;12.88;3.25;;;14.20;99.90;;;;;;5017527;28;20176;-72
2023/06/30 01:50:18;;;;;;;12.57;3.35;;;14.20;99.90;;;;;;5003098;28;20067;-72
2023/06/30 01:52:43;;;;;;;9.50;2.97;;;14.10;99.90;;;;;;5024419;28;20045;-72
2023/06/30 01:55:09;;;;;;;10.35;2.72;;;14.10;99.90;;;;;;5020119;28;20468;-72
2023/06/30 01:57:35;;;;;;;9.00;2.80;;;14.10;99.90;;;;;;5021379;28;20053;-72
2023/06/30 02:00:01;;;;;;;9.80;2.97;;;14.00;99.90;;;;;;5028726;28;20049;-72
2023/06/30 02:02:27;;;;;;;12.00;3.10;;;14.00;99.90;;;;;;5008479;28;20136;-72
2023/06/30 02:04:52;;;;;;;10.48;3.03;;;14.00;99.90;;;;;;5020644;28;21205;-72
2023/06/30 02:07:18;;;;;;;8.82;2.60;;;14.00;99.90;;;;;;5022106;28;20699;-72
2023/06/30 02:09:44;;;;;;;8.13;2.50;;;13.90;99.90;;;;;;5014595;28;20037;-72
2023/06/30 02:12:10;;;;;;;9.27;2.70;;;13.90;99.90;;;;;;5023556;28;20041;-72
2023/06/30 02:14:35;;;;;;;9.15;2.63;;;13.90;99.90;;;;;;5023091;28;20053;-72
2023/06/30 02:17:01;;;;;;;9.73;2.80;;;13.90;99.90;;;;;;5010464;28;20491;-72
2023/06/30 02:19:27;;;;;;;6.75;2.50;;;13.80;99.90;;;;;;5019048;28;20053;-72
2023/06/30 02:21:53;;;;;;;11.48;3.10;;;13.80;99.90;;;;;;5016069;28;20926;-72
2023/06/30 02:24:18;;;;;;;6.00;2.35;;;13.70;99.90;;;;;;5009518;28;20077;-72
2023/06/30 02:26:47;;;;;;;7.25;2.70;;;13.70;99.90;;;;;;5013613;28;20383;-72
2023/06/30 02:29:13;;;;;;;10.80;2.55;;;13.70;99.90;;;;;;5026859;28;20044;-71
2023/06/30 02:31:39;;;;;;;10.73;2.83;;;13.70;99.90;;;;;;5009887;28;20140;-73
2023/06/30 02:34:04;;;;;;;9.23;2.70;;;13.70;99.90;;;;;;5025497;28;20053;-72
2023/06/30 02:36:30;;;;;;;10.43;2.80;;;13.60;99.90;;;;;;5006904;28;20076;-72
2023/06/30 02:38:56;;;;;;;8.55;3.08;;;13.60;99.90;;;;;;5015395;28;20041;-72
2023/06/30 02:41:21;;;;;;;6.63;2.28;;;13.60;99.90;;;;;;5015926;28;20766;-71
2023/06/30 02:43:47;;;;;;;7.05;2.78;;;13.60;99.90;;;;;;5018651;28;20475;-72
2023/06/30 02:46:12;;;;;;;11.05;2.90;;;13.50;99.90;;;;;;5014774;28;20046;-72
2023/06/30 02:48:38;;;;;;;8.73;2.40;;;13.50;99.90;;;;;;5022570;28;20053;-72
2023/06/30 02:51:04;;;;;;;9.55;3.05;;;13.50;99.90;;;;;;5011017;28;20048;-72
2023/06/30 02:53:29;;;;;;;9.90;3.05;;;13.50;99.90;;;;;;5017276;28;20054;-72
2023/06/30 02:55:55;;;;;;;8.65;2.45;;;13.40;99.90;;;;;;4996773;28;20045;-71
2023/06/30 02:58:22;;;;;;;14.05;3.03;;;13.40;99.90;;;;;;5017642;28;20049;-72
2023/06/30 03:00:49;;;;;;;9.20;2.72;;;13.40;99.90;;;;;;5007336;28;20103;-72
2023/06/30 03:03:15;;;;;;;11.13;2.70;;;13.40;99.90;;;;;;5023684;28;20057;-72
2023/06/30 03:05:40;;;;;;;11.50;3.00;;;13.30;99.90;;;;;;4999070;28;20058;-72
2023/06/30 03:08:06;;;;;;;7.45;2.58;;;13.30;99.90;;;;;;5011743;28;20042;-72
2023/06/30 03:10:32;;;;;;;10.93;3.08;;;13.30;99.90;;;;;;4999727;28;20563;-72
2023/06/30 03:12:58;;;;;;;10.75;2.78;;;13.30;99.90;;;;;;5016740;28;20041;-72
2023/06/30 03:15:23;;;;;;;9.77;3.00;;;13.20;99.90;;;;;;5020647;28;20172;-72
2023/06/30 03:17:49;;;;;;;11.05;2.92;;;13.20;99.90;;;;;;5014042;28;20133;-71
2023/06/30 03:20:15;;;;;;;10.27;2.92;;;13.20;99.90;;;;;;5017125;28;20061;-72
2023/06/30 03:22:41;;;;;;;6.75;2.47;;;13.20;99.90;;;;;;5015456;28;20045;-72
2023/06/30 03:25:10;;;;;;;9.07;2.72;;;13.20;99.90;;;;;;5013820;28;20041;-72
2023/06/30 03:27:36;;;;;;;8.70;2.78;;;13.20;99.90;;;;;;5002057;28;20045;-72
2023/06/30 03:30:04;;;;;;;9.77;3.50;;;13.10;99.90;;;;;;5010738;28;20402;-72
2023/06/30 03:32:30;;;;;;;8.10;2.53;;;13.10;99.90;;;;;;5012773;28;20509;-72
2023/06/30 03:34:56;;;;;;;10.60;2.80;;;13.10;99.90;;;;;;5007305;28;20077;-72
2023/06/30 03:37:22;;;;;;;12.65;2.75;;;13.00;99.90;;;;;;5006538;28;20069;-72
2023/06/30 03:39:47;;;;;;;8.15;2.88;;;13.00;99.90;;;;;;5015464;28;20494;-72
2023/06/30 03:42:13;;;;;;;9.10;3.08;;;13.00;99.90;;;;;;5015785;28;20061;-71
2023/06/30 03:44:39;;;;;;;7.13;2.55;;;13.00;99.90;;;;;;5020789;28;20128;-72
2023/06/30 03:47:05;;;;;;;10.65;3.22;;;13.00;99.90;;;;;;5013296;28;20057;-72
2023/06/30 03:49:31;;;;;;;9.77;3.25;;;12.90;99.90;;;;;;5023957;28;20445;-72
2023/06/30 03:51:56;;;;;;;7.65;2.70;;;12.90;99.90;;;;;;5010714;28;20045;-72
2023/06/30 03:54:22;;;;;;;6.68;2.42;;;12.90;99.90;;;;;;5007471;28;20088;-72
2023/06/30 03:56:48;;;;;;;8.75;2.65;;;12.90;99.90;;;;;;5012639;28;20096;-72
2023/06/30 03:59:14;;;;;;;6.82;2.47;;;12.90;99.90;;;;;;5021568;28;20045;-72
2023/06/30 04:01:40;;;;;;;6.43;3.20;;;12.90;99.90;;;;;;5020200;28;20050;-72
2023/06/30 04:04:06;;;;;;;8.85;2.78;;;12.90;99.90;;;;;;5014101;28;20466;-72
2023/06/30 04:06:33;;;;;;;7.07;2.60;;;12.90;99.90;;;;;;5007457;28;20128;-67
2023/06/30 04:08:59;;;;;;;10.10;3.08;;;12.90;99.90;;;;;;5012713;28;20111;-67
2023/06/30 04:11:25;;;;;;;8.90;2.85;;;12.90;99.90;;;;;;5012404;28;20038;-67
2023/06/30 04:13:51;;;;;;;7.20;3.08;;;12.90;99.90;;;;;;4996506;28;20076;-72
2023/06/30 04:16:19;;;;;;;8.95;2.90;;;12.90;99.90;;;;;;5018764;28;20069;-72
2023/06/30 04:18:45;;;;;;;8.70;2.58;;;12.90;99.90;;;;;;5011968;28;20134;-72
2023/06/30 04:21:11;;;;;;;8.20;2.58;;;12.90;99.90;;;;;;5019275;28;20500;-71
2023/06/30 04:23:37;;;;;;;10.25;3.03;;;12.90;99.90;;;;;;5017577;28;20107;-72
2023/06/30 04:26:04;;;;;;;8.18;3.08;;;12.90;99.90;;;;;;5023054;28;20395;-72
2023/06/30 04:28:30;;;;;;;9.30;2.75;;;13.00;99.90;;;;;;5024382;28;20049;-72
2023/06/30 04:30:58;;;;;;;9.52;2.92;;;13.00;99.90;;;;;;5013781;28;20080;-72
2023/06/30 04:33:24;;;;;;;8.13;2.90;;;13.00;99.90;;;;;;5017443;28;20128;-72
2023/06/30 04:35:50;;;;;;;9.82;2.88;;;13.00;99.90;;;;;;5015590;28;20660;-72
2023/06/30 04:38:19;;;;;;;8.52;3.28;;;13.10;99.90;;;;;;4989564;28;20410;-72
2023/06/30 04:40:46;;;;;;;10.52;3.15;;;13.20;99.90;;;;;;5015499;28;20124;-72
2023/06/30 04:43:12;;;;;;;10.65;2.50;;;13.50;99.90;;;;;;5007994;28;20042;-72
2023/06/30 04:45:42;;;;;;;7.82;2.38;;;13.80;99.90;;;;;;5009982;28;20071;-73
2023/06/30 04:48:10;;;;;;;10.93;2.58;;;14.10;99.90;;;;;;5008731;28;20132;-72
2023/06/30 04:50:36;;;;;;;7.40;2.15;;;14.40;99.90;;;;;;5019465;28;20161;-72
2023/06/30 04:53:02;;;;;;;8.73;2.17;;;14.70;99.90;;;;;;5013142;28;20600;-73
2023/06/30 04:55:28;;;;;;;11.82;2.20;;;15.00;99.90;;;;;;4991486;28;20041;-72
2023/06/30 04:57:55;;;;;;;6.82;2.20;;;15.30;99.90;;;;;;5021188;28;20489;-73
2023/06/30 05:00:22;;;;;;;9.07;1.92;;;15.50;99.90;;;;;;5018237;28;20046;-72
2023/06/30 05:02:48;;;;;;;10.07;2.15;;;15.80;99.90;;;;;;5021300;28;20080;-73
2023/06/30 05:05:14;;;;;;;9.60;1.80;;;16.10;99.90;;;;;;5017765;28;20410;-73
2023/06/30 05:07:40;;;;;;;7.28;1.83;;;16.30;99.90;;;;;;5026077;28;20049;-73
2023/06/30 05:10:06;;;;;;;13.13;2.33;;;16.50;99.90;;;;;;5028789;28;20141;-73
2023/06/30 05:12:31;;;;;;;8.18;2.08;;;16.80;99.90;;;;;;5022241;28;20049;-72
2023/06/30 05:14:57;;;;;;;9.32;2.00;;;17.00;99.90;;;;;;5005711;28;20050;-71
2023/06/30 05:17:23;;;;;;;6.28;1.77;;;17.20;99.90;;;;;;5019994;28;20705;-73
2023/06/30 05:19:48;;;;;;;10.93;2.10;;;17.40;99.90;;;;;;5009637;28;20056;-73
2023/06/30 05:22:14;;;;;;;6.88;1.95;;;17.50;99.90;;;;;;5026627;28;20045;-73
2023/06/30 05:24:40;;;;;;;6.35;1.73;;;17.70;99.90;;;;;;5022868;28;20056;-73
2023/06/30 05:27:06;;;;;;;7.18;1.80;;;17.90;99.90;;;;;;5015229;28;20033;-72
2023/06/30 05:29:32;;;;;;;7.05;1.67;;;18.10;99.90;;;;;;5020910;28;20677;-73
2023/06/30 05:31:58;;;;;;;5.22;1.40;;;18.20;99.90;;;;;;5022667;28;20037;-68
2023/06/30 05:34:23;;;;;;;8.00;2.03;;;18.40;99.90;;;;;;5015294;28;20045;-68
2023/06/30 05:36:49;;;;;;;6.82;2.03;;;18.40;99.90;;;;;;5026630;28;20422;-68
2023/06/30 05:39:15;;;;;;;6.35;1.55;;;18.20;99.90;;;;;;5024734;28;20044;-68
2023/06/30 05:41:41;;;;;;;10.90;2.35;;;18.00;99.90;;;;;;5039241;28;20067;-67
2023/06/30 05:44:07;;;;;;;9.43;2.25;;;17.70;99.90;;;;;;5024781;28;20049;-67
2023/06/30 05:46:34;;;;;;;13.02;3.55;;;17.50;99.90;;;;;;5013223;28;20085;-67
2023/06/30 05:49:02;;;;;;;6.97;1.88;;;17.30;99.90;;;;;;5012148;28;20046;-67
2023/06/30 05:51:28;;;;;;;4.32;1.65;;;17.20;99.90;;;;;;5015212;28;20049;-67
2023/06/30 05:53:54;;;;;;;9.90;1.80;;;17.10;99.90;;;;;;5017245;28;20128;-68
2023/06/30 05:56:19;;;;;;;5.22;1.70;;;17.00;99.90;;;;;;5001291;28;20052;-67
2023/06/30 05:58:45;;;;;;;10.88;2.28;;;16.90;99.90;;;;;;5020230;28;20049;-67
2023/06/30 06:01:12;;;;;;;7.35;2.00;;;16.80;99.90;;;;;;5019321;28;20045;-67
2023/06/30 06:03:38;;;;;;;8.02;1.63;;;16.70;99.90;;;;;;5017204;28;20081;-67
2023/06/30 06:06:04;;;;;;;7.63;1.67;;;16.80;99.90;;;;;;5023009;28;20049;-68
2023/06/30 06:08:30;;;;;;;10.77;1.73;;;17.00;99.90;;;;;;5028160;28;20056;-67
2023/06/30 06:10:55;;;;;;;8.57;1.65;;;17.40;99.90;;;;;;5016368;28;20037;-67
2023/06/30 06:13:35;;;;;;;9.10;1.80;;;17.70;99.90;;;;;;5027620;28;20041;-67
2023/06/30 06:16:01;;;;;;;7.93;1.40;;;18.10;99.90;;;;;;5016436;28;20073;-68
2023/06/30 06:18:27;;;;;;;10.88;1.73;;;18.40;99.90;;;;;;5021562;28;20041;-68
2023/06/30 06:20:55;;;;;;;5.68;1.40;;;18.50;99.90;;;;;;5009647;28;20498;-68
2023/06/30 06:23:20;;;;;;;5.57;1.50;;;18.60;99.90;;;;;;4992776;28;20053;-68
2023/06/30 06:25:46;;;;;;;6.28;1.42;;;18.70;99.90;;;;;;5018637;28;20052;-67
2023/06/30 06:28:12;;;;;;;11.15;1.88;;;18.70;99.90;;;;;;5020516;28;20042;-68
2023/06/30 06:30:38;;;;;;;6.38;1.50;;;18.50;99.90;;;;;;5015590;28;20049;-68
2023/06/30 06:33:03;;;;;;;6.47;1.38;;;18.30;99.90;;;;;;5020312;28;20617;-67
2023/06/30 06:35:29;;;;;;;4.80;1.40;;;18.20;99.90;;;;;;5019183;28;20040;-68
2023/06/30 06:37:55;;;;;;;5.28;1.23;;;18.00;99.90;;;;;;5024664;28;20612;-68
2023/06/30 06:40:21;;;;;;;6.28;1.30;;;17.90;99.90;;;;;;5023429;28;20783;-68
2023/06/30 06:42:46;;;;;;;7.75;1.30;;;17.80;99.90;;;;;;5015687;28;20041;-68
2023/06/30 06:45:12;;;;;;;5.07;1.40;;;17.80;99.90;;;;;;5019698;28;20057;-67
2023/06/30 06:48:15;;;;;;;4.90;1.48;;;17.70;99.90;;;;;;5019160;28;20152;-68
2023/06/30 06:50:41;;;;;;;5.47;1.67;;;17.70;99.90;;;;;;5017551;28;20414;-68
2023/06/30 06:53:07;;;;;;;5.57;1.42;;;17.70;99.90;;;;;;5025434;28;20057;-68
2023/06/30 06:55:33;;;;;;;6.57;1.70;;;17.70;99.90;;;;;;5013330;28;20045;-67
2023/06/30 06:57:58;;;;;;;5.63;1.10;;;17.60;99.90;;;;;;5013635;28;20048;-68
2023/06/30 07:00:24;;;;;;;5.95;1.40;;;17.60;99.90;;;;;;5017245;28;20080;-68
2023/06/30 07:02:52;;;;;;;5.72;1.50;;;17.60;99.90;;;;;;5017087;28;20076;-67
2023/06/30 07:05:17;;;;;;;7.93;1.52;;;17.60;99.90;;;;;;5009595;28;20041;-68
2023/06/30 07:07:43;;;;;;;4.85;1.23;;;17.60;99.90;;;;;;5013420;28;20038;-67
2023/06/30 07:10:09;;;;;;;6.57;1.48;;;17.60;99.90;;;;;;4999035;28;20072;-67
2023/06/30 07:12:35;;;;;;;7.28;1.45;;;17.60;99.90;;;;;;5000492;28;20099;-68
2023/06/30 07:15:01;;;;;;;8.13;1.33;;;17.60;99.90;;;;;;5021278;28;20081;-68
2023/06/30 07:17:26;;;;;;;8.57;1.45;;;17.60;99.90;;;;;;5009268;28;20057;-68
2023/06/30 07:19:52;;;;;;;6.35;1.45;;;17.70;99.90;;;;;;5016077;28;20061;-67
2023/06/30 07:22:18;;;;;;;7.03;1.58;;;17.70;99.90;;;;;;5020289;28;20044;-67
2023/06/30 07:24:44;;;;;;;6.93;1.40;;;17.70;99.90;;;;;;5017933;28;20049;-68
2023/06/30 07:27:09;;;;;;;9.90;1.50;;;17.70;99.90;;;;;;5019623;28;20045;-68
2023/06/30 07:29:35;;;;;;;7.30;1.40;;;17.70;99.90;;;;;;5013406;28;20072;-67
2023/06/30 07:32:01;;;;;;;10.88;1.90;;;17.80;99.90;;;;;;5019942;28;20053;-67
2023/06/30 07:34:29;;;;;;;7.53;1.40;;;17.80;99.90;;;;;;5025474;28;20092;-67
2023/06/30 07:36:55;;;;;;;9.82;1.70;;;17.80;99.90;;;;;;5011885;28;20136;-67
2023/06/30 07:39:20;;;;;;;6.10;1.23;;;17.90;99.90;;;;;;5018875;28;20054;-68
2023/06/30 07:41:47;;;;;;;5.28;1.20;;;18.00;99.90;;;;;;5022106;28;20123;-67
2023/06/30 07:44:13;;;;;;;6.47;1.63;;;18.10;99.90;;;;;;5023638;28;20049;-67
2023/06/30 07:46:39;;;;;;;3.30;1.25;;;18.20;99.90;;;;;;5015539;28;20046;-68
2023/06/30 07:49:05;;;;;;;9.30;1.20;;;18.30;99.90;;;;;;5014769;28;20045;-68
2023/06/30 07:51:30;;;;;;;6.75;1.20;;;18.50;99.90;;;;;;5007134;28;20041;-67
2023/06/30 07:53:56;;;;;;;7.50;1.45;;;18.50;99.90;;;;;;5022870;28;20136;-68
2023/06/30 07:56:23;;;;;;;5.93;1.30;;;18.50;99.90;;;;;;5021627;28;20045;-67
2023/06/30 07:58:48;;;;;;;8.88;1.58;;;18.50;99.90;;;;;;5016674;28;20399;-68
2023/06/30 08:01:14;;;;;;;7.30;1.30;;;18.50;99.90;;;;;;5011477;28;20041;-68
2023/06/30 08:03:40;;;;;;;10.75;1.40;;;18.60;99.90;;;;;;5014941;28;20054;-68
2023/06/30 08:06:06;;;;;;;6.60;1.20;;;18.70;99.90;;;;;;4996728;28;20107;-68
2023/06/30 08:08:32;;;;;;;7.28;1.27;;;18.80;99.90;;;;;;5010908;28;20050;-68
2023/06/30 08:10:58;;;;;;;3.60;0.93;;;18.90;99.90;;;;;;5000902;28;20496;-68
2023/06/30 08:13:25;;;;;;;7.95;1.42;;;19.00;99.90;;;;;;5021911;28;20045;-67
2023/06/30 08:15:51;;;;;;;5.15;1.05;;;19.10;99.90;;;;;;5017343;28;20046;-74
2023/06/30 08:18:17;;;;;;;10.68;1.35;;;19.20;99.90;;;;;;5014836;28;20446;-74
2023/06/30 08:20:42;;;;;;;7.10;1.15;;;19.30;99.90;;;;;;5015165;28;20060;-74
2023/06/30 08:23:10;;;;;;;5.78;1.40;;;19.40;99.90;;;;;;5012207;28;20056;-74
2023/06/30 08:25:36;;;;;;;6.60;1.10;;;19.50;99.90;;;;;;5011744;28;20553;-73
2023/06/30 08:28:02;;;;;;;4.90;1.10;;;19.60;99.90;;;;;;5010751;28;20042;-74
2023/06/30 08:30:27;;;;;;;4.10;0.63;;;19.60;99.90;;;;;;5014083;28;20100;-74
2023/06/30 08:32:54;;;;;;;3.35;1.00;;;19.60;99.90;;;;;;5015461;28;20095;-74
2023/06/30 08:35:20;;;;;;;6.15;1.25;;;19.70;99.90;;;;;;5019702;28;20048;-74
2023/06/30 08:37:46;;;;;;;7.88;1.00;;;19.80;99.90;;;;;;5019735;28;20676;-74
2023/06/30 08:40:12;;;;;;;5.18;1.25;;;19.90;99.90;;;;;;5036908;28;20049;-74
2023/06/30 08:42:43;;;;;;;4.47;1.00;;;19.90;99.90;;;;;;5015351;28;20127;-75
2023/06/30 08:45:09;;;;;;;;;;;20.00;99.90;;;;;;5015184;28;20076;-74
2023/06/30 08:47:37;;;;;;;5.05;1.20;;;20.10;99.90;;;;;;5017035;28;19991;-74
2023/06/30 08:50:04;;;;;;;5.85;1.10;;;20.10;99.90;;;;;;5023435;28;20091;-74
2023/06/30 08:52:30;;;;;;;6.97;1.17;;;20.20;99.90;;;;;;5015550;28;20107;-74
2023/06/30 08:54:56;;;;;;;3.60;0.90;;;20.20;99.90;;;;;;5018982;28;20038;-74
2023/06/30 08:57:22;;;;;;;4.47;1.20;;;20.20;99.90;;;;;;5017844;28;20077;-74
2023/06/30 08:59:48;;;;;;;6.13;1.20;;;20.10;99.90;;;;;;5038698;28;20045;-74
2023/06/30 09:02:14;;;;;;;5.07;0.95;;;20.10;99.90;;;;;;5000906;28;20576;-75
2023/06/30 09:04:40;;;;;;;3.42;1.00;;;20.10;99.90;;;;;;5022035;28;20045;-74
2023/06/30 09:07:09;;;;;;;8.77;1.55;;;20.20;99.90;;;;;;5019622;28;20060;-74
2023/06/30 09:09:43;;;;;;;7.65;1.20;;;20.30;99.90;;;;;;5019094;28;20375;-74
2023/06/30 09:12:10;;;;;;;8.95;1.20;;;20.30;99.90;;;;;;5022987;28;20053;-75
2023/06/30 09:14:38;;;;;;;5.18;1.00;;;20.30;99.90;;;;;;5022375;28;20049;-75
2023/06/30 09:17:05;;;;;;;7.30;1.27;;;20.20;99.90;;;;;;5013679;28;20484;-75
2023/06/30 09:19:31;;;;;;;6.85;1.13;;;20.10;99.90;;;;;;5007959;28;20068;-74
2023/06/30 09:21:57;;;;;;;6.10;1.40;;;20.10;99.90;;;;;;5007126;28;20844;-74
2023/06/30 09:24:23;;;;;;;5.43;1.00;;;20.10;99.90;;;;;;5020171;28;20038;-75
2023/06/30 09:26:49;;;;;;;4.65;1.15;;;20.20;99.90;;;;;;5021019;28;20076;-75
2023/06/30 09:29:20;;;;;;;7.30;1.30;;;20.30;99.90;;;;;;5015694;28;20403;-75
2023/06/30 09:31:50;;;;;;;4.00;1.00;;;20.30;99.90;;;;;;5013468;28;20054;-75
2023/06/30 09:34:15;;;;;;;6.90;1.20;;;20.30;99.90;;;;;;5016595;28;20052;-74
2023/06/30 09:36:52;;;;;;;4.35;1.00;;;20.20;99.90;;;;;;5014408;28;20041;-75
2023/06/30 09:39:18;;;;;;;5.68;1.33;;;20.30;99.90;;;;;;5012415;28;20061;-75
2023/06/30 09:41:46;;;;;;;5.65;0.75;;;20.30;99.90;;;;;;5015766;28;20033;-75
2023/06/30 09:44:14;;;;;;;3.20;0.88;;;20.40;99.90;;;;;;5006788;28;20053;-75
2023/06/30 09:46:47;;;;;;;4.50;1.25;;;20.50;99.90;;;;;;4997316;28;20056;-75
2023/06/30 09:49:25;;;;;;;4.75;1.05;;;20.60;99.90;;;;;;5008503;28;20049;-75
2023/06/30 09:51:51;;;;;;;4.30;1.08;;;20.70;99.90;;;;;;5008657;28;20140;-76
2023/06/30 09:54:21;;;;;;;6.60;1.35;;;20.70;99.90;;;;;;5009609;28;20041;-75
2023/06/30 09:56:46;;;;;;;5.40;1.20;;;20.70;99.90;;;;;;5012517;28;20041;-75
2023/06/30 09:59:13;;;;;;;4.80;1.23;;;20.60;99.90;;;;;;5016301;28;20045;-74
2023/06/30 10:01:42;;;;;;;3.45;1.00;;;20.60;99.90;;;;;;5018524;28;20128;-75
2023/06/30 10:04:07;;;;;;;3.65;1.17;;;20.70;99.90;;;;;;5024757;28;20168;-76
2023/06/30 10:06:35;;;;;;;3.22;0.80;;;20.70;99.90;;;;;;5014419;28;20122;-75
2023/06/30 10:09:04;;;;;;;11.82;1.45;;;20.80;99.90;;;;;;5009334;28;20076;-76
2023/06/30 10:11:31;;;;;;;5.82;1.15;;;20.80;99.90;;;;;;4996779;28;20588;-75
2023/06/30 10:13:59;;;;;;;6.35;1.00;;;20.80;99.90;;;;;;5015772;28;20041;-74
2023/06/30 10:16:25;;;;;;;5.68;1.10;;;20.90;99.90;;;;;;5014469;28;20140;-74
2023/06/30 10:18:52;;;;;;;4.68;1.02;;;20.90;99.90;;;;;;5006979;28;20045;-74
2023/06/30 10:21:18;;;;;;;8.85;1.50;;;21.00;99.90;;;;;;4997784;28;20045;-75
2023/06/30 10:23:47;;;;;;;3.95;1.00;;;21.10;99.90;;;;;;5011631;28;20144;-76
2023/06/30 10:26:16;;;;;;;10.05;1.27;;;21.10;99.90;;;;;;5013407;28;20050;-75
2023/06/30 10:28:43;;;;;;;4.32;1.10;;;21.20;99.90;;;;;;5011212;28;20595;-75
2023/06/30 10:31:09;;;;;;;5.82;1.23;;;21.30;99.90;;;;;;5014235;28;20045;-76
2023/06/30 10:33:36;;;;;;;6.32;1.23;;;21.30;99.90;;;;;;5013575;28;20167;-75
2023/06/30 10:36:03;;;;;;;5.10;1.50;;;21.40;99.90;;;;;;4998766;28;20061;-76
2023/06/30 10:38:29;;;;;;;5.55;1.30;;;21.50;99.90;;;;;;5013410;28;20144;-76
2023/06/30 10:41:19;;;;;;;3.03;1.10;;;21.50;99.90;;;;;;5015940;28;20048;-75
2023/06/30 10:44:03;;;;;;;6.72;1.23;;;21.60;99.90;;;;;;5017965;28;20453;-76
2023/06/30 10:46:47;;;;;;;4.88;1.02;;;21.60;99.90;;;;;;5002182;28;20088;-77
2023/06/30 10:49:30;;;;;;;5.25;1.17;;;21.60;99.90;;;;;;5004108;28;20099;-77
2023/06/30 10:52:01;;;;;;;5.82;1.27;;;21.50;99.90;;;;;;5018743;28;20049;-76
2023/06/30 10:54:28;;;;;;;5.93;1.30;;;21.50;99.90;;;;;;5011555;28;20121;-76
2023/06/30 10:57:24;;;;;;;4.18;1.25;;;21.50;99.90;;;;;;5015942;28;20042;-76
2023/06/30 11:00:11;;;;;;;10.30;1.60;;;21.60;99.90;;;;;;5012927;28;20135;-76
2023/06/30 11:02:45;;;;;;;6.63;1.13;;;21.70;99.90;;;;;;4996959;28;20080;-76
2023/06/30 11:05:28;;;;;;;6.28;1.48;;;21.70;99.90;;;;;;5017539;28;20158;-77
2023/06/30 11:08:23;;;;;;;7.18;1.10;;;21.60;99.90;;;;;;5018879;28;20045;-77
2023/06/30 11:10:50;;;;;;;4.10;1.25;;;21.60;99.90;;;;;;5003042;28;20159;-77
2023/06/30 11:13:35;;;;;;;5.75;1.20;;;21.70;99.90;;;;;;5016519;28;20045;-75
2023/06/30 11:16:02;;;;;;;7.40;2.00;;;21.80;99.90;;;;;;5016115;28;20060;-75
2023/06/30 11:18:28;;;;;;;5.47;1.27;;;21.80;99.90;;;;;;5013468;28;20050;-76
2023/06/30 11:21:07;;;;;;;5.07;1.38;;;21.80;99.90;;;;;;5014484;28;20055;-76
2023/06/30 11:23:36;;;;;;;5.32;1.23;;;21.90;99.90;;;;;;5012294;28;20509;-76
2023/06/30 11:26:16;;;;;;;5.38;1.05;;;21.80;99.90;;;;;;5013713;28;20041;-75
2023/06/30 11:28:42;;;;;;;4.95;1.20;;;21.80;99.90;;;;;;4985805;28;20045;-76
2023/06/30 11:31:10;;;;;;;5.57;1.23;;;21.80;99.90;;;;;;5005499;28;20095;-76
2023/06/30 11:33:43;;;;;;;4.78;1.27;;;21.80;99.90;;;;;;5009078;28;20107;-75
2023/06/30 11:36:16;;;;;;;6.78;1.40;;;21.90;99.90;;;;;;5002954;28;20085;-75
2023/06/30 11:38:45;;;;;;;6.43;1.40;;;21.90;99.90;;;;;;5004035;28;20066;-76
2023/06/30 11:41:11;;;;;;;7.50;1.42;;;22.00;98.60;;;;;;5008029;28;21808;-76
2023/06/30 11:43:39;;;;;;;7.07;1.30;;;22.00;99.90;;;;;;5009949;28;20045;-76
2023/06/30 11:46:05;;;;;;;5.55;1.25;;;22.10;99.60;;;;;;5008776;28;20065;-76
2023/06/30 11:48:38;;;;;;;8.35;1.63;;;22.00;99.90;;;;;;4992492;28;20431;-76
2023/06/30 11:51:05;;;;;;;6.22;1.35;;;22.00;99.80;;;;;;4997003;28;20061;-76
2023/06/30 11:53:31;;;;;;;5.30;1.27;;;22.00;99.80;;;;;;4993897;28;20049;-77
2023/06/30 11:55:57;;;;;;;7.15;1.42;;;22.00;99.70;;;;;;4992018;28;20328;-77
2023/06/30 11:58:23;;;;;;;7.03;1.40;;;22.10;98.70;;;;;;4991181;28;20691;-76
2023/06/30 12:00:49;;;;;;;3.03;1.15;;;22.10;99.40;;;;;;4997590;28;20045;-75
2023/06/30 12:03:17;;;;;;;6.50;1.45;;;22.20;98.20;;;;;;4997056;28;20049;-76
2023/06/30 12:05:53;;;;;;;3.17;1.20;;;22.20;98.90;;;;;;4997756;28;20383;-76
2023/06/30 12:08:20;;;;;;;4.32;1.00;;;22.20;97.90;;;;;;5015479;28;20045;-76
2023/06/30 12:10:47;;;;;;;3.40;1.20;;;22.20;97.60;;;;;;5001137;28;20049;-76
2023/06/30 12:13:13;;;;;;;3.55;1.00;;;22.20;97.30;;;;;;5004522;28;20058;-75
2023/06/30 12:15:40;;;;;;;4.80;1.25;;;22.10;98.40;;;;;;5000931;28;20447;-76
2023/06/30 12:18:05;;;;;;;5.20;1.25;;;22.10;98.10;;;;;;4997449;28;20152;-76
2023/06/30 12:20:36;;;;;;;3.33;1.20;;;22.10;98.30;;;;;;4995281;28;20053;-76
2023/06/30 12:23:06;;;;;;;3.42;0.90;;;22.00;98.40;;;;;;5002596;28;21206;-77
2023/06/30 12:25:36;;;;;;;4.30;1.40;;;22.00;98.70;;;;;;4985134;28;20046;-76
2023/06/30 12:28:06;;;;;;;6.10;1.40;;;21.90;97.40;;;;;;5001049;28;20132;-76
2023/06/30 12:30:32;;;;;;;6.10;1.50;;;21.90;98.10;;;;;;5004673;28;20572;-77
2023/06/30 12:33:00;;;;;;;4.43;1.13;;;21.90;97.30;;;;;;4998870;28;20050;-76
2023/06/30 12:35:30;;;;;;;4.43;1.27;;;21.90;98.90;;;;;;5003732;28;20140;-76
2023/06/30 12:37:56;;;;;;;5.35;1.38;;;21.90;98.50;;;;;;4987964;28;20073;-76
2023/06/30 12:40:22;;;;;;;3.47;1.10;;;21.90;98.80;;;;;;5003887;28;20138;-76
2023/06/30 12:42:51;;;;;;;5.47;1.50;;;21.90;98.70;;;;;;5004554;28;20737;-76
2023/06/30 12:45:16;;;;;;;8.05;1.50;;;21.80;98.50;;;;;;5002848;28;20058;-76
2023/06/30 12:47:42;;;;;;;4.07;1.45;;;21.80;98.80;;;;;;5003210;28;20058;-75